createdAt,value
2022-11-23T00:02:52.561Z,9.1
2022-11-23T00:04:50.183Z,9.1
2022-11-23T00:06:55.681Z,9
2022-11-23T00:08:53.305Z,9.1
2022-11-23T00:10:50.895Z,9.1
2022-11-23T00:12:48.482Z,9.2
2022-11-23T00:14:46.085Z,9.2
2022-11-23T00:16:43.680Z,9.1
2022-11-23T00:18:41.301Z,9.2
2022-11-23T00:20:46.761Z,9.1
2022-11-23T00:22:44.387Z,9.2
2022-11-23T00:24:42.054Z,9.1
2022-11-23T00:26:39.605Z,9.2
2022-11-23T00:28:37.105Z,9.2
2022-11-23T00:30:34.721Z,9.2
2022-11-23T00:32:32.316Z,9.2
2022-11-23T00:34:37.834Z,9.2
2022-11-23T00:36:35.438Z,9.2
2022-11-23T00:38:33.067Z,9.2
2022-11-23T00:42:57.593Z,9.3
2022-11-23T00:44:55.210Z,9.2
2022-11-23T00:54:51.171Z,9.2
2022-11-23T00:56:48.790Z,9.3
2022-11-23T00:58:46.389Z,9.2
2022-11-23T01:00:51.921Z,9.3
2022-11-23T01:02:49.494Z,9.3
2022-11-23T01:04:47.104Z,9.3
2022-11-23T01:06:44.698Z,9.2
2022-11-23T01:08:42.333Z,9.2
2022-11-23T01:10:39.899Z,9.2
2022-11-23T01:16:40.684Z,9.3
2022-11-23T01:18:38.280Z,9.2
2022-11-23T01:20:35.876Z,9.2
2022-11-23T01:22:33.488Z,9.4
2022-11-23T01:24:31.088Z,9.3
2022-11-23T01:26:28.698Z,9.3
2022-11-23T01:33:32.166Z,9.3
2022-11-23T01:35:29.937Z,9.3
2022-11-23T01:37:27.390Z,9.3
2022-11-23T01:39:25.018Z,9.3
2022-11-23T01:41:30.497Z,9.3
2022-11-23T01:43:28.110Z,9.4
2022-11-23T01:45:25.702Z,9.4
2022-11-23T01:47:23.324Z,9.5
2022-11-23T01:49:20.917Z,9.4
2022-11-23T01:51:18.530Z,9.4
2022-11-23T01:53:16.148Z,9.4
2022-11-23T01:55:21.654Z,9.4
2022-11-23T01:57:19.261Z,9.4
2022-11-23T01:59:18.415Z,9.4
2022-11-23T02:01:16.085Z,9.5
2022-11-23T02:03:13.593Z,9.5
2022-11-23T02:05:11.226Z,9.4
2022-11-23T02:07:08.885Z,9.4
2022-11-23T02:09:14.328Z,9.4
2022-11-23T02:11:11.939Z,9.5
2022-11-23T02:13:09.560Z,9.5
2022-11-23T02:15:07.168Z,9.4
2022-11-23T02:19:02.430Z,9.5
2022-11-23T02:21:00.027Z,9.5
2022-11-23T02:23:05.532Z,9.5
2022-11-23T02:25:03.129Z,9.5
2022-11-23T02:27:00.728Z,9.5
2022-11-23T02:28:03.479Z,9.6
2022-11-23T02:30:01.073Z,9.5
2022-11-23T02:31:58.704Z,9.5
2022-11-23T02:33:56.336Z,9.5
2022-11-23T02:36:01.853Z,9.5
2022-11-23T02:37:59.435Z,9.5
2022-11-23T02:39:57.064Z,9.4
2022-11-23T02:41:54.690Z,9.5
2022-11-23T02:45:49.935Z,9.5
2022-11-23T02:47:47.535Z,9.6
2022-11-23T02:49:53.038Z,9.5
2022-11-23T02:51:50.756Z,9.5
2022-11-23T02:53:49.289Z,9.5
2022-11-23T02:55:45.901Z,9.5
2022-11-23T03:03:44.225Z,9.5
2022-11-23T03:07:39.514Z,9.6
2022-11-23T03:09:37.088Z,9.4
2022-11-23T03:11:34.719Z,9.5
2022-11-23T03:13:32.308Z,9.5
2022-11-23T03:17:35.454Z,9.5
2022-11-23T03:21:30.677Z,9.6
2022-11-23T03:26:28.649Z,9.5
2022-11-23T03:28:26.252Z,9.5
2022-11-23T03:30:31.761Z,9.4
2022-11-23T03:32:29.507Z,9.4
2022-11-23T03:34:26.986Z,9.5
2022-11-23T03:36:24.618Z,9.5
2022-11-23T03:38:22.245Z,9.5
2022-11-23T03:40:19.849Z,9.4
2022-11-23T03:42:17.449Z,9.4
2022-11-23T03:44:22.992Z,9.5
2022-11-23T03:46:20.649Z,9.5
2022-11-23T03:48:18.229Z,9.4
2022-11-23T03:50:15.849Z,9.4
2022-11-23T03:52:13.461Z,9.4
2022-11-23T03:54:11.077Z,9.4
2022-11-23T03:56:08.685Z,9.3
2022-11-23T03:58:14.207Z,9.3
2022-11-23T04:00:11.816Z,9.5
2022-11-23T04:02:09.432Z,9.5
2022-11-23T04:04:07.062Z,9.4
2022-11-23T04:06:04.673Z,9.3
2022-11-23T04:08:02.268Z,9.4
2022-11-23T04:09:59.877Z,9.4
2022-11-23T04:12:05.379Z,9.3
2022-11-23T04:14:03.011Z,9.4
2022-11-23T04:16:00.645Z,9.3
2022-11-23T04:18:23.488Z,9.3
2022-11-23T04:20:21.114Z,9.3
2022-11-23T04:22:18.711Z,9.3
2022-11-23T04:24:24.236Z,9.3
2022-11-23T04:26:21.821Z,9.3
2022-11-23T04:28:19.440Z,9.3
2022-11-23T04:30:17.064Z,9.3
2022-11-23T04:32:14.653Z,9.3
2022-11-23T04:38:15.403Z,9.1
2022-11-23T04:42:10.595Z,9.1
2022-11-23T04:44:08.224Z,9.1
2022-11-23T04:52:06.520Z,9
2022-11-23T04:54:04.156Z,9.2
2022-11-23T04:59:56.990Z,9.2
2022-11-23T05:01:54.595Z,9.1
2022-11-23T05:03:52.226Z,9.1
2022-11-23T05:05:57.709Z,9.1
2022-11-23T05:07:55.357Z,9.1
2022-11-23T05:09:52.949Z,9
2022-11-23T05:10:55.691Z,9
2022-11-23T05:12:53.299Z,9
2022-11-23T05:14:50.887Z,9
2022-11-23T05:16:48.489Z,9
2022-11-23T05:18:54.036Z,9
2022-11-23T05:20:51.632Z,9.1
2022-11-23T05:22:49.238Z,9.1
2022-11-23T05:24:46.871Z,9.1
2022-11-23T05:26:44.461Z,9.1
2022-11-23T05:28:42.233Z,9.1
2022-11-23T05:30:39.667Z,9.1
2022-11-23T05:32:45.186Z,9.1
2022-11-23T05:38:37.962Z,9.1
2022-11-23T05:40:35.551Z,9.2
2022-11-23T05:46:36.298Z,9.2
2022-11-23T05:48:33.862Z,9.2
2022-11-23T05:54:26.677Z,9.2
2022-11-23T05:56:24.297Z,9.2
2022-11-23T05:58:21.935Z,9.2
2022-11-23T06:00:27.432Z,9.3
2022-11-23T06:02:25.034Z,9.3
2022-11-23T06:05:25.357Z,9.2
2022-11-23T06:07:23.049Z,9.2
2022-11-23T06:09:20.597Z,9.3
2022-11-23T06:11:18.258Z,9.3
2022-11-23T06:19:16.564Z,9.2
2022-11-23T06:27:17.908Z,9.3
2022-11-23T06:29:12.511Z,9.3
2022-11-23T06:33:07.714Z,9.4
2022-11-23T06:35:05.341Z,9.3
2022-11-23T06:37:02.945Z,9.3
2022-11-23T06:39:00.557Z,9.2
2022-11-23T06:41:06.059Z,9.3
2022-11-23T06:43:03.708Z,9.3
2022-11-23T06:45:01.278Z,9.4
2022-11-23T06:46:58.901Z,9.3
2022-11-23T06:48:56.499Z,9.2
2022-11-23T06:52:51.734Z,9.4
2022-11-23T06:54:57.240Z,9.3
2022-11-23T06:56:54.848Z,9.3
2022-11-23T06:58:52.468Z,9.3
2022-11-23T06:59:55.214Z,9.3
2022-11-23T07:01:52.829Z,9.3
2022-11-23T07:03:50.646Z,9.3
2022-11-23T07:05:47.999Z,9.2
2022-11-23T07:07:53.620Z,9.2
2022-11-23T07:09:52.295Z,9.3
2022-11-23T07:17:41.626Z,9.2
2022-11-23T07:19:39.226Z,9.3
2022-11-23T07:21:44.747Z,9.3
2022-11-23T07:23:42.369Z,9.3
2022-11-23T07:25:39.949Z,9.3
2022-11-23T07:27:37.567Z,9.2
2022-11-23T07:29:35.291Z,9.3
2022-11-23T07:31:32.807Z,9.4
2022-11-23T07:35:35.913Z,9.3
2022-11-23T07:37:33.529Z,9.4
2022-11-23T07:39:55.034Z,9.3
2022-11-23T07:41:30.303Z,9.4
2022-11-23T07:43:27.860Z,9.4
2022-11-23T07:45:25.571Z,9.3
2022-11-23T07:47:23.109Z,9.3
2022-11-23T07:49:28.670Z,9.3
2022-11-23T07:51:26.201Z,9.3
2022-11-23T07:53:23.823Z,9.4
2022-11-23T07:55:50.979Z,9.3
2022-11-23T07:57:48.444Z,9.4
2022-11-23T07:59:46.016Z,9.4
2022-11-23T08:01:57.089Z,9.4
2022-11-23T08:03:49.212Z,9.4
2022-11-23T08:05:46.765Z,9.3
2022-11-23T08:07:44.480Z,9.3
2022-11-23T08:11:39.576Z,9.4
2022-11-23T08:13:37.205Z,9.4
2022-11-23T08:17:40.311Z,9.3
2022-11-23T08:19:37.917Z,9.4
2022-11-23T08:21:35.527Z,9.3
2022-11-23T08:25:30.707Z,9.2
2022-11-23T08:27:28.353Z,9.2
2022-11-23T08:29:33.883Z,9.3
2022-11-23T08:31:31.504Z,9.3
2022-11-23T08:33:29.095Z,9.3
2022-11-23T08:35:26.666Z,9.3
2022-11-23T08:37:24.303Z,9.3
2022-11-23T08:39:21.897Z,9.3
2022-11-23T08:41:19.528Z,9.3
2022-11-23T08:43:25.051Z,9.2
2022-11-23T08:45:22.638Z,9.3
2022-11-23T08:47:20.270Z,9.3
2022-11-23T08:48:23.031Z,9.2
2022-11-23T08:50:20.652Z,9.2
2022-11-23T08:52:18.254Z,9.2
2022-11-23T08:54:15.898Z,9.2
2022-11-23T08:58:19.028Z,9.3
2022-11-23T09:00:16.633Z,9.4
2022-11-23T09:06:09.510Z,9.4
2022-11-23T09:08:07.094Z,9.5
2022-11-23T09:10:17.979Z,9.4
2022-11-23T09:12:10.327Z,9.5
2022-11-23T09:14:07.800Z,9.5
2022-11-23T09:16:05.436Z,9.5
2022-11-23T09:18:03.052Z,9.5
2022-11-23T09:20:00.682Z,9.6
2022-11-23T09:21:58.272Z,9.6
2022-11-23T09:24:03.775Z,9.6
2022-11-23T09:26:01.369Z,9.6
2022-11-23T09:27:59.001Z,9.6
2022-11-23T09:29:56.624Z,9.6
2022-11-23T09:31:54.239Z,9.6
2022-11-23T09:33:51.860Z,9.7
2022-11-23T09:35:49.448Z,9.7
2022-11-23T09:39:52.557Z,9.8
2022-11-23T09:41:50.184Z,10
2022-11-23T09:42:52.954Z,10.3
2022-11-23T09:44:50.541Z,10.2
2022-11-23T09:46:48.154Z,10.3
2022-11-23T09:48:45.747Z,10.3
2022-11-23T09:50:51.242Z,10.4
2022-11-23T09:52:48.854Z,10.4
2022-11-23T09:54:46.499Z,10.5
2022-11-23T09:56:44.093Z,10.5
2022-11-23T09:58:41.706Z,10.4
2022-11-23T10:00:39.306Z,10.5
2022-11-23T10:02:36.900Z,10.7
2022-11-23T10:04:42.460Z,10.7
2022-11-23T10:06:40.061Z,10.7
2022-11-23T10:08:37.673Z,10.8
2022-11-23T10:12:35.981Z,11
2022-11-23T10:14:30.835Z,11
2022-11-23T10:16:28.170Z,11.4
2022-11-23T10:18:33.690Z,11.3
2022-11-23T10:20:31.273Z,11.2
2022-11-23T10:22:28.887Z,11.2
2022-11-23T10:24:26.478Z,11.1
2022-11-23T10:26:24.098Z,11.1
2022-11-23T10:30:19.375Z,11.1
2022-11-23T10:32:24.883Z,11.1
2022-11-23T10:39:20.518Z,11.2
2022-11-23T10:41:18.166Z,11.2
2022-11-23T10:43:15.757Z,11.3
2022-11-23T10:45:21.269Z,11.4
2022-11-23T10:49:16.521Z,11.4
2022-11-23T10:51:14.131Z,11.6
2022-11-23T10:53:11.750Z,11.6
2022-11-23T10:55:09.393Z,11.8
2022-11-23T10:57:07.022Z,11.8
2022-11-23T10:59:12.561Z,11.9
2022-11-23T11:01:10.153Z,11.9
2022-11-23T11:03:07.767Z,11.8
2022-11-23T11:05:05.407Z,11.9
2022-11-23T11:07:03.014Z,13
2022-11-23T11:09:03.451Z,14.4
2022-11-23T11:10:58.270Z,14.8
2022-11-23T11:15:10.494Z,14.4
2022-11-23T11:16:58.987Z,13.6
2022-11-23T11:18:56.612Z,13.1
2022-11-23T11:24:49.506Z,12.6
2022-11-23T11:26:54.988Z,12.6
2022-11-23T11:28:52.620Z,12.7
2022-11-23T11:30:50.230Z,12.8
2022-11-23T11:35:20.352Z,13.1
2022-11-23T11:37:12.409Z,13.1
2022-11-23T11:39:19.329Z,13
2022-11-23T11:41:15.536Z,13
2022-11-23T11:43:13.148Z,13.4
2022-11-23T11:45:10.781Z,14.6
2022-11-23T11:47:08.423Z,16
2022-11-23T11:49:06.031Z,16.9
2022-11-23T11:51:03.674Z,17.2
2022-11-23T11:53:09.207Z,16.4
2022-11-23T11:55:06.779Z,16.9
2022-11-23T11:59:02.036Z,17.9
2022-11-23T12:00:59.601Z,17.7
2022-11-23T12:02:57.318Z,17.4
2022-11-23T12:04:54.813Z,17.9
2022-11-23T12:07:00.348Z,18
2022-11-23T12:08:57.949Z,17.2
2022-11-23T12:10:55.612Z,17.5
2022-11-23T12:12:53.181Z,17.6
2022-11-23T12:14:50.790Z,17.2
2022-11-23T12:17:04.074Z,17.7
2022-11-23T12:18:45.965Z,16
2022-11-23T12:20:51.515Z,13.9
2022-11-23T12:22:49.121Z,13.5
2022-11-23T12:24:46.696Z,13.2
2022-11-23T12:25:49.455Z,12.7
2022-11-23T12:27:48.976Z,12.8
2022-11-23T12:35:45.406Z,12.4
2022-11-23T12:39:40.614Z,12.2
2022-11-23T12:41:38.219Z,12.3
2022-11-23T12:43:36.721Z,12.3
2022-11-23T12:47:38.980Z,12.3
2022-11-23T12:49:39.144Z,12.2
2022-11-23T12:51:34.209Z,12.1
2022-11-23T12:53:31.874Z,12
2022-11-23T12:55:29.454Z,12.1
2022-11-23T12:57:27.109Z,12.2
2022-11-23T13:03:27.821Z,12.1
2022-11-23T13:05:25.451Z,12
2022-11-23T13:07:33.907Z,11.9
2022-11-23T13:09:20.765Z,11.9
2022-11-23T13:11:18.359Z,12.1
2022-11-23T13:13:16.334Z,12.1
2022-11-23T13:15:21.466Z,12.1
2022-11-23T13:17:19.177Z,12.1
2022-11-23T13:19:16.704Z,12
2022-11-23T13:20:19.473Z,12
2022-11-23T13:22:18.679Z,12
2022-11-23T13:24:16.244Z,12
2022-11-23T13:26:13.855Z,12
2022-11-23T13:28:19.389Z,12
2022-11-23T13:30:17.056Z,11.9
2022-11-23T13:32:14.708Z,11.9
2022-11-23T13:34:12.240Z,11.9
2022-11-23T13:36:12.621Z,11.9
2022-11-23T13:40:05.142Z,11.9
2022-11-23T13:44:08.302Z,11.9
2022-11-23T13:46:05.994Z,11.8
2022-11-23T13:50:01.146Z,11.8
2022-11-23T13:51:58.766Z,11.8
2022-11-23T13:53:56.351Z,11.5
2022-11-23T13:59:57.125Z,11.5
2022-11-23T14:05:49.993Z,11.3
2022-11-23T14:07:47.598Z,11.4
2022-11-23T14:09:53.103Z,11.2
2022-11-23T14:11:50.741Z,11.3
2022-11-23T14:13:48.389Z,11.2
2022-11-23T14:14:51.234Z,11.3
2022-11-23T14:18:46.404Z,11.2
2022-11-23T14:20:44.036Z,11.1
2022-11-23T14:22:49.557Z,11.1
2022-11-23T14:24:47.187Z,11.1
2022-11-23T14:26:44.801Z,11.1
2022-11-23T14:28:42.444Z,11.1
2022-11-23T14:30:40.065Z,11.2
2022-11-23T14:32:37.688Z,11.1
2022-11-23T14:34:35.608Z,11.1
2022-11-23T14:36:40.860Z,10.9
2022-11-23T14:38:38.526Z,10.9
2022-11-23T14:40:36.112Z,10.9
2022-11-23T14:46:28.974Z,10.8
2022-11-23T14:48:26.588Z,10.7
2022-11-23T14:50:32.127Z,10.6
2022-11-23T14:52:29.758Z,10.7
2022-11-23T14:54:27.366Z,10.6
2022-11-23T14:56:24.980Z,10.5
2022-11-23T14:58:22.584Z,10.5
2022-11-23T15:02:17.831Z,10.3
2022-11-23T15:04:23.532Z,10.4
2022-11-23T15:06:21.018Z,10.3
2022-11-23T15:08:18.584Z,10.3
2022-11-23T15:10:46.472Z,10.1
2022-11-23T15:12:44.135Z,10.1
2022-11-23T15:14:42.476Z,10
2022-11-23T15:16:47.287Z,9.8
2022-11-23T15:18:44.871Z,9.9
2022-11-23T15:22:40.087Z,9.9
2022-11-23T15:24:37.670Z,9.9
2022-11-23T15:26:48.066Z,9.8
2022-11-23T15:30:38.413Z,9.8
2022-11-23T15:32:36.130Z,9.8
2022-11-23T15:34:33.591Z,9.7
2022-11-23T15:36:31.233Z,9.8
2022-11-23T15:38:28.812Z,9.7
2022-11-23T15:40:26.436Z,9.7
2022-11-23T15:42:24.072Z,9.6
2022-11-23T15:44:29.590Z,9.5
2022-11-23T15:46:27.250Z,9.5
2022-11-23T15:48:24.788Z,9.6
2022-11-23T15:50:22.400Z,9.7
2022-11-23T15:52:20.007Z,9.7
2022-11-23T15:54:17.642Z,9.6
2022-11-23T15:56:15.266Z,9.6
2022-11-23T15:58:20.739Z,9.5
2022-11-23T16:00:18.342Z,9.5
2022-11-23T16:02:16.006Z,9.4
2022-11-23T16:03:18.724Z,9.5
2022-11-23T16:05:16.326Z,9.4
2022-11-23T16:07:13.966Z,9.5
2022-11-23T16:11:17.063Z,9.4
2022-11-23T16:15:12.282Z,9.3
2022-11-23T16:17:09.923Z,9.5
2022-11-23T16:19:07.520Z,9.3
2022-11-23T16:21:05.164Z,9.4
2022-11-23T16:23:02.706Z,9.3
2022-11-23T16:25:08.256Z,9.2
2022-11-23T16:27:05.862Z,9.3
2022-11-23T16:29:03.444Z,9.3
2022-11-23T16:31:01.108Z,9.3
2022-11-23T16:32:58.662Z,9.3
2022-11-23T16:34:56.267Z,9.2
2022-11-23T16:36:53.854Z,9.2
2022-11-23T16:39:05.140Z,9.2
2022-11-23T16:40:56.974Z,9.2
2022-11-23T16:42:54.580Z,9.3
2022-11-23T16:44:52.212Z,9.1
2022-11-23T16:46:49.887Z,9.2
2022-11-23T16:50:45.018Z,9.2
2022-11-23T16:52:50.541Z,9.2
2022-11-23T16:54:48.153Z,9.3
2022-11-23T16:56:45.744Z,9.3
2022-11-23T16:57:48.513Z,9.1
2022-11-23T16:59:46.090Z,9.1
2022-11-23T17:01:43.735Z,9.1
2022-11-23T17:03:41.323Z,9.2
2022-11-23T17:09:42.040Z,9.2
2022-11-23T17:11:39.669Z,9.2
2022-11-23T17:13:37.246Z,9.1
2022-11-23T17:15:34.875Z,9.3
2022-11-23T17:17:32.489Z,9.2
2022-11-23T17:19:37.992Z,9.1
2022-11-23T17:21:35.619Z,9.3
2022-11-23T17:23:33.181Z,9.2
2022-11-23T17:25:30.805Z,9.2
2022-11-23T17:27:28.385Z,9.2
2022-11-23T17:29:26.020Z,9.2
2022-11-23T17:31:23.658Z,9.2
2022-11-23T17:33:29.159Z,9.2
2022-11-23T17:35:26.758Z,9.3
2022-11-23T17:41:19.575Z,9.2
2022-11-23T17:43:17.201Z,9.2
2022-11-23T17:45:14.833Z,9.3
2022-11-23T17:47:20.318Z,9.3
2022-11-23T17:49:17.933Z,9.2
2022-11-23T17:52:18.266Z,9.2
2022-11-23T17:54:15.986Z,9.3
2022-11-23T17:56:13.493Z,9.4
2022-11-23T17:58:11.092Z,9.3
2022-11-23T18:00:16.589Z,9.3
2022-11-23T18:02:14.192Z,9.3
2022-11-23T18:04:11.780Z,9.4
2022-11-23T18:06:09.399Z,9.4
2022-11-23T18:08:07.010Z,9.4
2022-11-23T18:12:02.258Z,9.3
2022-11-23T18:16:05.407Z,9.4
2022-11-23T18:18:04.849Z,9.4
2022-11-23T18:20:00.735Z,9.4
2022-11-23T18:21:58.211Z,9.5
2022-11-23T18:23:57.933Z,9.4
2022-11-23T18:25:53.405Z,9.5
2022-11-23T18:27:58.906Z,9.4
2022-11-23T18:29:56.519Z,9.4
2022-11-23T18:31:54.120Z,9.6
2022-11-23T18:33:51.728Z,9.5
2022-11-23T18:35:49.319Z,9.5
2022-11-23T18:37:46.934Z,9.5
2022-11-23T18:39:44.512Z,9.6
2022-11-23T18:41:50.058Z,9.5
2022-11-23T18:43:47.664Z,9.6
2022-11-23T18:45:45.272Z,9.5
2022-11-23T18:50:09.867Z,9.5
2022-11-23T18:52:07.498Z,9.5
2022-11-23T18:58:08.204Z,9.6
2022-11-23T19:00:06.345Z,9.5
2022-11-23T19:02:03.513Z,9.5
2022-11-23T19:04:02.626Z,9.6
2022-11-23T19:06:00.155Z,9.6
2022-11-23T19:08:05.817Z,9.6
2022-11-23T19:10:03.293Z,9.6
2022-11-23T19:12:00.888Z,9.6
2022-11-23T19:13:58.501Z,9.6
2022-11-23T19:15:56.194Z,9.6
2022-11-23T19:17:53.751Z,9.6
2022-11-23T19:19:51.318Z,9.6
2022-11-23T19:21:56.816Z,9.7
2022-11-23T19:23:54.411Z,9.7
2022-11-23T19:25:52.013Z,9.6
2022-11-23T19:27:49.614Z,9.7
2022-11-23T19:29:47.236Z,9.7
2022-11-23T19:33:42.440Z,9.6
2022-11-23T19:35:47.961Z,9.6
2022-11-23T19:37:45.562Z,9.5
2022-11-23T19:39:43.153Z,9.5
2022-11-23T19:40:45.927Z,9.5
2022-11-23T19:46:38.880Z,9.4
2022-11-23T19:53:09.957Z,9.4
2022-11-23T19:54:37.145Z,9.4
2022-11-23T19:56:34.734Z,9.4
2022-11-23T19:58:32.368Z,9.3
2022-11-23T20:00:29.950Z,9.3
2022-11-23T20:02:35.606Z,9.1
2022-11-23T20:04:33.087Z,9.2
2022-11-23T20:06:30.706Z,9.1
2022-11-23T20:08:28.284Z,9.1
2022-11-23T20:10:25.912Z,9.1
2022-11-23T20:12:23.499Z,9.2
2022-11-23T20:16:26.685Z,9.1
2022-11-23T20:24:17.058Z,9.1
2022-11-23T20:35:15.725Z,9
2022-11-23T20:37:13.331Z,8.8
2022-11-23T20:39:10.932Z,8.9
2022-11-23T20:41:08.507Z,8.9
2022-11-23T20:43:14.035Z,8.8
2022-11-23T20:45:11.631Z,8.9
2022-11-23T20:47:09.428Z,8.9
2022-11-23T20:49:06.793Z,8.8
2022-11-23T20:51:09.083Z,8.9
2022-11-23T20:53:02.022Z,8.9
2022-11-23T20:54:59.635Z,8.8
2022-11-23T20:57:05.142Z,8.9
2022-11-23T20:59:02.745Z,8.9
2022-11-23T21:01:00.343Z,8.8
2022-11-23T21:02:58.003Z,8.8
2022-11-23T21:04:55.564Z,8.8
2022-11-23T21:06:53.149Z,8.8
2022-11-23T21:08:50.783Z,8.7
2022-11-23T21:10:56.287Z,8.7
2022-11-23T21:12:53.866Z,8.7
2022-11-23T21:14:51.453Z,8.7
2022-11-23T21:16:49.060Z,8.7
2022-11-23T21:18:46.648Z,8.7
2022-11-23T21:20:44.289Z,8.7
2022-11-23T21:22:41.888Z,8.7
2022-11-23T21:24:47.419Z,8.6
2022-11-23T21:28:42.589Z,8.6
2022-11-23T21:29:45.370Z,8.7
2022-11-23T21:31:43.046Z,8.7
2022-11-23T21:37:43.678Z,8.6
2022-11-23T21:39:41.317Z,8.6
2022-11-23T21:41:38.917Z,8.6
2022-11-23T21:43:36.503Z,8.6
2022-11-23T21:45:34.093Z,8.6
2022-11-23T21:47:31.730Z,8.6
2022-11-23T21:49:29.305Z,8.6
2022-11-23T21:51:34.851Z,8.5
2022-11-23T21:53:32.417Z,8.6
2022-11-23T21:55:30.020Z,8.5
2022-11-23T21:57:27.617Z,8.6
2022-11-23T21:59:25.221Z,8.5
2022-11-23T22:01:22.883Z,8.6
2022-11-23T22:05:25.959Z,8.6
2022-11-23T22:07:23.738Z,8.5
2022-11-23T22:09:21.176Z,8.6
2022-11-23T22:11:18.780Z,8.6
2022-11-23T22:13:16.331Z,8.6
2022-11-23T22:15:13.965Z,8.5
2022-11-23T22:17:11.571Z,8.6
2022-11-23T22:19:17.123Z,8.5
2022-11-23T22:21:14.750Z,8.5
2022-11-23T22:23:12.328Z,8.6
2022-11-23T22:25:40.973Z,8.5
2022-11-23T22:27:36.801Z,8.6
2022-11-23T22:29:34.410Z,8.6
2022-11-23T22:33:37.519Z,8.5
2022-11-23T22:37:32.697Z,8.6
2022-11-23T22:39:30.545Z,8.5
2022-11-23T22:41:27.909Z,8.6
2022-11-23T22:43:25.516Z,8.5
2022-11-23T22:45:31.196Z,8.6
2022-11-23T22:47:28.653Z,8.6
2022-11-23T22:49:26.255Z,8.7
2022-11-23T22:51:23.833Z,8.6
2022-11-23T22:53:21.458Z,8.7
2022-11-23T22:57:16.640Z,8.6
2022-11-23T22:59:22.736Z,8.6
2022-11-23T23:07:13.239Z,8.6
2022-11-23T23:09:10.721Z,8.7
2022-11-23T23:13:13.842Z,8.6
2022-11-23T23:15:11.478Z,8.6
2022-11-23T23:18:11.794Z,8.6
2022-11-23T23:20:09.429Z,8.7
2022-11-23T23:22:07.026Z,8.7
2022-11-23T23:24:04.602Z,8.7
2022-11-23T23:26:10.106Z,8.6
2022-11-23T23:28:07.682Z,8.6
2022-11-23T23:30:05.340Z,8.6
2022-11-23T23:32:02.985Z,8.6
2022-11-23T23:34:00.547Z,8.6
2022-11-23T23:35:58.842Z,8.6
2022-11-23T23:37:56.490Z,8.6
2022-11-23T23:40:02.014Z,8.6
2022-11-23T23:41:59.629Z,8.7
2022-11-23T23:43:57.220Z,8.7
2022-11-23T23:45:54.859Z,8.8
2022-11-23T23:47:52.395Z,8.7
2022-11-23T23:51:51.333Z,8.8
2022-11-23T23:53:53.124Z,8.6
